createdAt,value
2019-05-06T00:00:34.118Z,9.74
2019-05-06T00:03:01.249Z,9.86
2019-05-06T00:05:28.123Z,9.98
2019-05-06T00:07:55.043Z,9.89
2019-05-06T00:10:31.426Z,9.85
2019-05-06T00:12:58.527Z,9.98
2019-05-06T00:15:25.621Z,10.00
2019-05-06T00:17:53.882Z,10.03
2019-05-06T00:20:21.167Z,10.10
2019-05-06T00:22:48.360Z,10.13
2019-05-06T00:25:16.948Z,10.16
2019-05-06T00:27:45.412Z,10.27
2019-05-06T00:30:14.826Z,10.30
2019-05-06T00:32:41.188Z,10.41
2019-05-06T00:35:08.997Z,10.46
2019-05-06T00:37:35.853Z,10.48
2019-05-06T00:40:04.940Z,10.50
2019-05-06T00:42:34.726Z,10.63
2019-05-06T00:45:01.778Z,10.60
2019-05-06T00:47:28.903Z,10.64
2019-05-06T00:49:55.595Z,10.72
2019-05-06T00:52:23.958Z,10.76
2019-05-06T00:54:51.068Z,10.76
2019-05-06T00:57:17.746Z,10.77
2019-05-06T00:59:44.453Z,10.71
2019-05-06T01:02:11.187Z,10.73
2019-05-06T01:04:37.972Z,10.74
2019-05-06T01:07:04.975Z,10.73
2019-05-06T01:09:34.554Z,10.78
2019-05-06T01:12:03.625Z,10.81
2019-05-06T01:14:31.873Z,10.82
2019-05-06T01:16:58.641Z,10.81
2019-05-06T01:19:25.309Z,10.85
2019-05-06T01:21:53.870Z,10.91
2019-05-06T01:24:20.677Z,10.93
2019-05-06T01:26:47.362Z,10.86
2019-05-06T01:29:14.674Z,10.84
2019-05-06T01:31:43.797Z,10.90
2019-05-06T01:34:10.156Z,10.92
2019-05-06T01:36:36.915Z,10.95
2019-05-06T01:39:24.638Z,10.88
2019-05-06T01:42:04.419Z,10.96
2019-05-06T01:44:31.328Z,11.05
2019-05-06T01:46:58.000Z,11.03
2019-05-06T01:49:24.696Z,11.06
2019-05-06T01:51:51.773Z,10.98
2019-05-06T01:54:18.540Z,10.91
2019-05-06T01:56:45.250Z,10.94
2019-05-06T01:59:13.946Z,10.91
2019-05-06T02:01:54.768Z,10.95
2019-05-06T02:04:09.694Z,11.03
2019-05-06T02:06:36.417Z,11.09
2019-05-06T02:09:09.086Z,11.11
2019-05-06T02:11:36.147Z,11.11
2019-05-06T02:14:04.806Z,11.09
2019-05-06T02:16:34.092Z,11.15
2019-05-06T02:19:00.688Z,11.20
2019-05-06T02:21:29.208Z,11.21
2019-05-06T02:24:14.425Z,11.27
2019-05-06T02:26:41.131Z,11.26
2019-05-06T02:29:12.672Z,11.29
2019-05-06T02:32:16.126Z,11.23
2019-05-06T02:34:46.139Z,11.21
2019-05-06T02:37:17.605Z,11.24
2019-05-06T02:39:44.312Z,11.33
2019-05-06T02:42:13.063Z,11.41
2019-05-06T02:44:39.662Z,11.39
2019-05-06T02:47:14.192Z,11.37
2019-05-06T02:49:44.234Z,11.39
2019-05-06T02:52:14.078Z,11.37
2019-05-06T02:54:42.617Z,11.38
2019-05-06T02:57:08.621Z,11.42
2019-05-06T02:59:35.342Z,11.38
2019-05-06T03:02:03.455Z,11.42
2019-05-06T03:04:33.218Z,11.39
2019-05-06T03:06:59.196Z,11.34
2019-05-06T03:09:25.909Z,11.37
2019-05-06T03:11:54.097Z,11.29
2019-05-06T03:14:23.367Z,11.17
2019-05-06T03:16:53.387Z,11.20
2019-05-06T03:19:19.193Z,11.24
2019-05-06T03:21:56.830Z,11.21
2019-05-06T03:24:25.853Z,11.18
2019-05-06T03:26:56.923Z,11.21
2019-05-06T03:29:25.005Z,11.21
2019-05-06T03:31:56.521Z,11.17
2019-05-06T03:34:38.409Z,11.19
2019-05-06T03:36:49.225Z,11.27
2019-05-06T03:39:16.380Z,11.26
2019-05-06T03:41:43.909Z,11.26
2019-05-06T03:44:16.282Z,11.41
2019-05-06T03:46:58.245Z,11.41
2019-05-06T03:49:26.736Z,11.46
2019-05-06T03:51:56.282Z,11.49
2019-05-06T03:54:23.263Z,11.54
2019-05-06T03:56:53.763Z,11.56
2019-05-06T03:59:23.326Z,11.49
2019-05-06T04:01:53.308Z,11.61
2019-05-06T04:04:18.910Z,11.68
2019-05-06T04:06:45.688Z,11.68
2019-05-06T04:09:13.394Z,11.76
2019-05-06T04:11:43.260Z,11.77
2019-05-06T04:14:09.802Z,11.78
2019-05-06T04:16:38.489Z,11.89
2019-05-06T04:19:13.268Z,11.89
2019-05-06T04:21:57.547Z,11.90
2019-05-06T04:24:35.345Z,12.05
2019-05-06T04:27:35.150Z,12.11
2019-05-06T04:30:04.654Z,12.27
2019-05-06T04:32:33.857Z,12.37
2019-05-06T04:34:59.670Z,12.42
2019-05-06T04:37:26.475Z,12.45
2019-05-06T04:39:53.694Z,12.41
2019-05-06T04:42:23.296Z,12.44
2019-05-06T04:44:52.953Z,12.58
2019-05-06T04:47:18.831Z,12.72
2019-05-06T04:49:45.938Z,12.82
2019-05-06T04:52:13.819Z,13.09
2019-05-06T04:54:43.939Z,13.28
2019-05-06T04:57:12.711Z,13.15
2019-05-06T04:59:39.441Z,13.12
2019-05-06T05:02:06.675Z,13.20
2019-05-06T05:04:36.585Z,13.18
2019-05-06T05:07:03.338Z,13.27
2019-05-06T05:09:32.530Z,13.55
2019-05-06T05:12:04.535Z,13.47
2019-05-06T05:14:33.017Z,13.50
2019-05-06T05:17:02.217Z,13.72
2019-05-06T05:19:32.723Z,13.79
2019-05-06T05:22:05.746Z,13.93
2019-05-06T05:24:33.333Z,14.05
2019-05-06T05:27:00.438Z,14.23
2019-05-06T05:29:27.116Z,14.47
2019-05-06T05:31:53.882Z,14.57
2019-05-06T05:34:22.443Z,14.58
2019-05-06T05:36:51.916Z,14.53
2019-05-06T05:39:18.472Z,14.53
2019-05-06T05:41:45.295Z,14.40
2019-05-06T05:44:17.007Z,14.53
2019-05-06T05:46:43.994Z,14.77
2019-05-06T05:49:18.419Z,14.88
2019-05-06T05:51:43.892Z,15.04
2019-05-06T05:54:12.430Z,15.00
2019-05-06T05:56:39.583Z,15.13
2019-05-06T05:59:06.371Z,15.19
2019-05-06T06:01:33.255Z,15.21
2019-05-06T06:04:02.833Z,15.48
2019-05-06T06:06:29.152Z,15.58
2019-05-06T06:08:55.878Z,15.76
2019-05-06T06:11:32.708Z,16.16
2019-05-06T06:14:03.007Z,16.80
2019-05-06T06:16:48.212Z,16.75
2019-05-06T06:19:19.564Z,16.78
2019-05-06T06:21:52.373Z,17.24
2019-05-06T06:24:27.105Z,17.26
2019-05-06T06:26:53.926Z,17.43
2019-05-06T06:29:22.735Z,17.42
2019-05-06T06:32:09.904Z,17.29
2019-05-06T06:34:39.509Z,17.25
2019-05-06T06:37:24.607Z,17.29
2019-05-06T06:39:52.699Z,17.12
2019-05-06T06:42:22.073Z,16.86
2019-05-06T06:44:48.392Z,16.82
2019-05-06T06:47:15.164Z,16.82
2019-05-06T06:49:42.535Z,16.77
2019-05-06T06:52:12.340Z,16.75
2019-05-06T06:54:39.113Z,17.19
2019-05-06T06:57:13.786Z,17.05
2019-05-06T06:59:55.538Z,17.21
2019-05-06T07:02:28.398Z,17.26
2019-05-06T07:04:56.867Z,17.29
2019-05-06T07:07:39.509Z,17.23
2019-05-06T07:09:54.077Z,17.27
2019-05-06T07:12:23.297Z,17.30
2019-05-06T07:14:52.319Z,17.25
2019-05-06T07:17:19.311Z,17.28
2019-05-06T07:19:47.836Z,17.21
2019-05-06T07:22:14.505Z,17.16
2019-05-06T07:24:43.078Z,17.09
2019-05-06T07:27:17.614Z,17.17
2019-05-06T07:29:48.117Z,17.07
2019-05-06T07:32:13.092Z,17.12
2019-05-06T07:34:41.574Z,17.17
2019-05-06T07:37:08.439Z,17.04
2019-05-06T07:39:35.111Z,17.07
2019-05-06T07:42:03.597Z,16.99
2019-05-06T07:44:33.357Z,17.20
2019-05-06T07:47:05.187Z,17.46
2019-05-06T07:49:32.929Z,17.66
2019-05-06T07:52:02.725Z,17.76
2019-05-06T07:54:29.778Z,17.79
2019-05-06T07:56:56.838Z,17.95
2019-05-06T07:59:23.734Z,18.15
2019-05-06T08:01:50.429Z,18.00
2019-05-06T08:04:17.292Z,17.70
2019-05-06T08:06:44.041Z,17.67
2019-05-06T08:09:12.935Z,17.46
2019-05-06T08:11:39.462Z,17.37
2019-05-06T08:14:06.238Z,17.26
2019-05-06T08:16:34.768Z,16.87
2019-05-06T08:19:02.803Z,16.21
2019-05-06T08:21:34.248Z,15.63
2019-05-06T08:24:02.723Z,15.07
2019-05-06T08:26:32.196Z,14.12
2019-05-06T08:28:58.909Z,13.30
2019-05-06T08:31:25.585Z,13.18
2019-05-06T08:33:52.751Z,13.25
2019-05-06T08:36:22.573Z,13.27
2019-05-06T08:38:56.516Z,13.50
2019-05-06T08:41:23.812Z,13.51
2019-05-06T08:43:52.637Z,13.63
2019-05-06T08:46:19.234Z,13.55
2019-05-06T08:48:45.985Z,13.75
2019-05-06T08:51:14.450Z,14.25
2019-05-06T08:53:43.943Z,14.52
2019-05-06T08:56:12.726Z,14.55
2019-05-06T08:58:45.981Z,14.69
2019-05-06T09:01:35.734Z,14.74
2019-05-06T09:04:09.521Z,14.94
2019-05-06T09:06:34.281Z,15.07
2019-05-06T09:09:02.450Z,14.92
2019-05-06T09:11:32.175Z,15.10
2019-05-06T09:13:59.146Z,15.47
2019-05-06T09:16:25.991Z,15.56
2019-05-06T09:18:53.388Z,15.52
2019-05-06T09:21:22.413Z,15.13
2019-05-06T09:23:48.816Z,15.35
2019-05-06T09:26:17.332Z,15.54
2019-05-06T09:28:48.896Z,16.07
2019-05-06T09:31:17.327Z,16.41
2019-05-06T09:33:45.891Z,16.93
2019-05-06T09:36:12.824Z,16.68
2019-05-06T09:38:39.548Z,16.67
2019-05-06T09:41:06.298Z,16.46
2019-05-06T09:43:32.990Z,16.28
2019-05-06T09:46:02.140Z,15.84
2019-05-06T09:48:42.534Z,15.84
2019-05-06T09:51:09.475Z,15.88
2019-05-06T09:53:37.990Z,16.15
2019-05-06T09:56:24.690Z,16.04
2019-05-06T09:58:52.905Z,16.21
2019-05-06T10:01:22.369Z,16.62
2019-05-06T10:03:48.373Z,16.55
2019-05-06T10:06:16.070Z,16.77
2019-05-06T10:08:42.857Z,16.63
2019-05-06T10:11:09.939Z,16.38
2019-05-06T10:13:36.735Z,16.32
2019-05-06T10:16:03.533Z,17.13
2019-05-06T10:18:30.321Z,16.71
2019-05-06T10:20:57.085Z,16.26
2019-05-06T10:23:23.814Z,16.26
2019-05-06T10:25:52.319Z,16.04
2019-05-06T10:28:26.712Z,15.78
2019-05-06T10:30:53.494Z,15.76
2019-05-06T10:33:24.690Z,15.70
2019-05-06T10:35:53.000Z,15.74
2019-05-06T10:38:28.813Z,15.78
2019-05-06T10:41:07.733Z,15.91
2019-05-06T10:43:57.146Z,16.30
2019-05-06T10:46:25.225Z,16.31
2019-05-06T10:48:53.013Z,16.42
2019-05-06T10:51:22.910Z,16.20
2019-05-06T10:53:49.681Z,15.99
2019-05-06T10:56:24.287Z,16.16
2019-05-06T10:58:52.761Z,16.05
2019-05-06T11:01:23.184Z,16.34
2019-05-06T11:03:52.387Z,15.74
2019-05-06T11:06:18.619Z,15.16
2019-05-06T11:08:45.321Z,14.29
2019-05-06T11:11:16.927Z,14.80
2019-05-06T11:13:40.761Z,15.21
2019-05-06T11:16:07.394Z,15.16
2019-05-06T11:18:34.078Z,15.18
2019-05-06T11:21:03.214Z,15.06
2019-05-06T11:23:29.469Z,14.28
2019-05-06T11:25:56.147Z,13.72
2019-05-06T11:28:28.783Z,13.24
2019-05-06T11:30:57.264Z,13.04
2019-05-06T11:33:32.950Z,12.89
2019-05-06T11:36:12.231Z,12.63
2019-05-06T11:38:39.228Z,12.47
2019-05-06T11:41:05.890Z,12.09
2019-05-06T11:43:32.620Z,11.70
2019-05-06T11:45:59.417Z,11.54
2019-05-06T11:48:26.357Z,11.53
2019-05-06T11:50:55.033Z,11.39
2019-05-06T11:53:23.163Z,10.84
2019-05-06T11:55:49.984Z,10.71
2019-05-06T11:58:34.626Z,10.42
2019-05-06T12:01:03.123Z,10.25
2019-05-06T12:03:29.816Z,10.41
2019-05-06T12:05:56.540Z,10.37
2019-05-06T12:08:23.221Z,10.20
2019-05-06T12:10:51.933Z,10.22
2019-05-06T12:13:18.551Z,10.17
2019-05-06T12:15:45.237Z,10.08
2019-05-06T12:18:12.524Z,10.03
2019-05-06T12:20:39.470Z,9.95
2019-05-06T12:23:06.185Z,9.95
2019-05-06T12:25:32.956Z,9.97
2019-05-06T12:27:59.632Z,10.08
2019-05-06T12:30:26.360Z,9.89
2019-05-06T12:32:54.996Z,10.15
2019-05-06T12:35:21.712Z,10.15
2019-05-06T12:37:50.294Z,10.16
2019-05-06T12:40:17.348Z,9.99
2019-05-06T12:42:45.916Z,9.99
2019-05-06T12:45:17.637Z,10.00
2019-05-06T12:47:46.138Z,9.89
2019-05-06T12:50:13.285Z,10.06
2019-05-06T12:52:43.815Z,10.05
2019-05-06T12:55:18.271Z,9.96
2019-05-06T12:57:38.254Z,9.97
2019-05-06T13:00:06.041Z,9.97
2019-05-06T13:02:33.024Z,9.96
2019-05-06T13:05:03.217Z,9.91
2019-05-06T13:07:32.320Z,9.93
2019-05-06T13:09:58.975Z,10.00
2019-05-06T13:12:27.528Z,10.04
2019-05-06T13:14:54.371Z,9.98
2019-05-06T13:17:22.949Z,9.94
2019-05-06T13:19:52.313Z,9.99
2019-05-06T13:22:24.564Z,9.91
2019-05-06T13:24:56.442Z,10.02
2019-05-06T13:27:27.283Z,10.01
2019-05-06T13:29:52.380Z,9.95
2019-05-06T13:32:20.959Z,9.88
2019-05-06T13:34:47.803Z,9.94
2019-05-06T13:37:14.599Z,9.74
2019-05-06T13:39:43.617Z,9.81
2019-05-06T13:42:13.273Z,9.77
2019-05-06T13:44:42.404Z,9.85
2019-05-06T13:47:12.129Z,9.89
2019-05-06T13:49:42.847Z,9.78
2019-05-06T13:52:12.430Z,9.91
2019-05-06T13:54:38.639Z,9.95
2019-05-06T13:57:05.603Z,9.88
2019-05-06T13:59:35.541Z,9.99
2019-05-06T14:02:22.179Z,10.02
2019-05-06T14:04:48.954Z,9.79
2019-05-06T14:07:15.804Z,9.99
2019-05-06T14:09:43.662Z,9.95
2019-05-06T14:12:10.770Z,10.09
2019-05-06T14:14:37.607Z,10.15
2019-05-06T14:17:04.378Z,10.20
2019-05-06T14:19:33.248Z,10.25
2019-05-06T14:21:59.737Z,10.23
2019-05-06T14:24:26.541Z,10.28
2019-05-06T14:26:58.651Z,10.21
2019-05-06T14:29:37.393Z,10.29
2019-05-06T14:32:04.116Z,10.36
2019-05-06T14:34:32.521Z,10.25
2019-05-06T14:37:07.381Z,10.33
2019-05-06T14:39:49.953Z,10.44
2019-05-06T14:42:07.637Z,10.31
2019-05-06T14:44:34.434Z,10.25
2019-05-06T14:47:03.081Z,10.29
2019-05-06T14:49:29.805Z,10.25
2019-05-06T14:51:56.524Z,10.38
2019-05-06T14:54:23.457Z,10.45
2019-05-06T14:57:02.618Z,10.49
2019-05-06T14:59:29.620Z,10.46
2019-05-06T15:01:56.399Z,10.59
2019-05-06T15:04:23.206Z,10.74
2019-05-06T15:06:49.981Z,10.61
2019-05-06T15:09:16.734Z,10.83
2019-05-06T15:11:43.671Z,10.82
2019-05-06T15:14:12.890Z,10.83
2019-05-06T15:16:39.174Z,10.98
2019-05-06T15:19:05.875Z,10.95
2019-05-06T15:21:38.457Z,10.96
2019-05-06T15:24:02.785Z,10.99
2019-05-06T15:26:29.617Z,10.98
2019-05-06T15:28:56.392Z,10.93
2019-05-06T15:31:28.958Z,10.95
2019-05-06T15:34:02.553Z,10.81
2019-05-06T15:36:32.721Z,10.93
2019-05-06T15:38:59.497Z,10.96
2019-05-06T15:41:26.281Z,10.84
2019-05-06T15:43:53.125Z,10.90
2019-05-06T15:46:19.879Z,10.78
2019-05-06T15:48:48.042Z,10.74
2019-05-06T15:51:14.930Z,10.80
2019-05-06T15:53:42.231Z,10.82
2019-05-06T15:56:09.074Z,10.77
2019-05-06T15:58:35.930Z,10.70
2019-05-06T16:01:03.337Z,10.70
2019-05-06T16:03:30.150Z,10.52
2019-05-06T16:05:57.018Z,10.48
2019-05-06T16:08:24.587Z,10.47
2019-05-06T16:10:55.765Z,10.56
2019-05-06T16:13:22.155Z,10.70
2019-05-06T16:15:48.737Z,10.59
2019-05-06T16:18:15.417Z,10.68
2019-05-06T16:20:42.238Z,10.77
2019-05-06T16:23:23.210Z,10.77
2019-05-06T16:25:52.269Z,10.84
2019-05-06T16:28:18.889Z,10.79
2019-05-06T16:30:53.419Z,10.73
2019-05-06T16:33:22.063Z,10.71
2019-05-06T16:35:49.091Z,10.64
2019-05-06T16:38:16.001Z,10.71
2019-05-06T16:40:45.476Z,10.77
2019-05-06T16:43:12.562Z,10.72
2019-05-06T16:45:39.450Z,10.82
2019-05-06T16:48:07.335Z,10.83
2019-05-06T16:50:34.074Z,10.89
2019-05-06T16:53:02.631Z,10.80
2019-05-06T16:55:47.805Z,10.74
2019-05-06T16:58:24.615Z,10.77
2019-05-06T17:00:52.427Z,10.62
2019-05-06T17:03:23.091Z,10.66
2019-05-06T17:06:06.763Z,10.74
2019-05-06T17:08:36.461Z,10.64
2019-05-06T17:11:04.659Z,10.71
2019-05-06T17:13:33.494Z,10.73
2019-05-06T17:15:59.822Z,10.78
2019-05-06T17:18:26.541Z,10.78
2019-05-06T17:20:53.245Z,10.70
2019-05-06T17:23:22.338Z,10.59
2019-05-06T17:25:48.729Z,10.68
2019-05-06T17:28:17.316Z,10.61
2019-05-06T17:30:57.963Z,10.62
2019-05-06T17:33:39.513Z,10.69
2019-05-06T17:36:08.346Z,10.58
2019-05-06T17:38:36.979Z,10.57
2019-05-06T17:41:03.804Z,10.64
2019-05-06T17:43:32.295Z,10.59
2019-05-06T17:46:03.181Z,10.55
2019-05-06T17:48:33.988Z,10.49
2019-05-06T17:51:13.488Z,10.42
2019-05-06T17:53:52.241Z,10.44
2019-05-06T17:56:19.364Z,10.36
2019-05-06T17:58:47.159Z,10.32
2019-05-06T18:01:15.789Z,10.26
2019-05-06T18:03:42.720Z,10.22
2019-05-06T18:06:13.957Z,10.19
2019-05-06T18:08:39.412Z,10.24
2019-05-06T18:11:06.221Z,10.28
2019-05-06T18:13:32.962Z,10.24
2019-05-06T18:15:59.813Z,10.31
2019-05-06T18:18:28.847Z,10.20
2019-05-06T18:20:55.503Z,10.21
2019-05-06T18:23:22.351Z,10.21
2019-05-06T18:25:49.124Z,10.24
2019-05-06T18:28:15.898Z,10.20
2019-05-06T18:30:42.906Z,10.17
2019-05-06T18:33:09.673Z,10.15
2019-05-06T18:35:36.531Z,10.05
2019-05-06T18:38:03.462Z,9.97
2019-05-06T18:40:33.036Z,9.87
2019-05-06T18:42:58.887Z,9.96
2019-05-06T18:45:25.680Z,9.87
2019-05-06T18:47:53.177Z,9.55
2019-05-06T18:50:22.030Z,9.64
2019-05-06T18:52:49.023Z,9.62
2019-05-06T18:55:18.867Z,9.55
2019-05-06T18:57:45.674Z,9.29
2019-05-06T19:00:13.520Z,9.21
2019-05-06T19:02:42.318Z,9.18
2019-05-06T19:05:26.768Z,9.29
2019-05-06T19:07:52.943Z,9.36
2019-05-06T19:10:22.389Z,9.22
2019-05-06T19:12:49.401Z,9.36
2019-05-06T19:15:16.203Z,9.29
2019-05-06T19:17:44.365Z,9.35
2019-05-06T19:20:11.693Z,9.34
2019-05-06T19:22:38.387Z,9.33
2019-05-06T19:25:05.304Z,9.39
2019-05-06T19:27:34.482Z,9.38
2019-05-06T19:30:10.217Z,9.28
2019-05-06T19:32:37.067Z,9.28
2019-05-06T19:35:04.139Z,9.29
2019-05-06T19:37:32.858Z,9.38
2019-05-06T19:39:59.857Z,9.36
2019-05-06T19:42:26.633Z,9.28
2019-05-06T19:44:53.518Z,9.21
2019-05-06T19:47:20.338Z,9.17
2019-05-06T19:49:47.142Z,9.24
2019-05-06T19:52:15.024Z,9.20
2019-05-06T19:54:42.475Z,9.20
2019-05-06T19:57:09.405Z,9.25
2019-05-06T19:59:36.105Z,9.28
2019-05-06T20:02:05.043Z,9.23
2019-05-06T20:04:33.275Z,9.26
2019-05-06T20:07:02.494Z,9.14
2019-05-06T20:09:47.910Z,9.10
2019-05-06T20:12:16.463Z,9.06
2019-05-06T20:14:43.252Z,9.16
2019-05-06T20:17:12.923Z,9.11
2019-05-06T20:19:39.738Z,8.97
2019-05-06T20:22:06.568Z,9.05
2019-05-06T20:24:33.454Z,9.08
2019-05-06T20:27:02.223Z,9.05
2019-05-06T20:29:32.410Z,9.02
2019-05-06T20:32:03.031Z,9.12
2019-05-06T20:34:32.020Z,9.11
2019-05-06T20:36:58.617Z,9.08
2019-05-06T20:39:25.455Z,8.98
2019-05-06T20:41:52.235Z,9.00
2019-05-06T20:44:19.017Z,8.96
2019-05-06T20:46:45.857Z,8.80
2019-05-06T20:49:13.229Z,8.55
2019-05-06T20:51:42.279Z,8.40
2019-05-06T20:54:08.723Z,8.37
2019-05-06T20:56:35.877Z,8.23
2019-05-06T20:59:02.688Z,8.13
2019-05-06T21:01:29.432Z,8.29
2019-05-06T21:03:56.135Z,8.35
2019-05-06T21:06:22.935Z,8.38
2019-05-06T21:08:49.797Z,8.00
2019-05-06T21:11:26.539Z,8.01
2019-05-06T21:13:45.369Z,8.06
2019-05-06T21:16:12.967Z,7.98
2019-05-06T21:18:41.837Z,7.93
2019-05-06T21:21:08.536Z,7.80
2019-05-06T21:23:35.340Z,7.81
2019-05-06T21:26:03.323Z,7.67
2019-05-06T21:28:30.197Z,7.67
2019-05-06T21:30:56.998Z,7.58
2019-05-06T21:33:23.717Z,7.72
2019-05-06T21:35:52.288Z,7.68
2019-05-06T21:38:19.097Z,7.65
2019-05-06T21:40:45.797Z,7.69
2019-05-06T21:43:15.614Z,7.53
2019-05-06T21:45:42.615Z,7.33
2019-05-06T21:48:09.526Z,7.40
2019-05-06T21:50:37.332Z,7.48
2019-05-06T21:53:04.121Z,7.24
2019-05-06T21:55:32.378Z,7.25
2019-05-06T21:57:59.418Z,7.24
2019-05-06T22:00:29.134Z,7.14
2019-05-06T22:02:57.644Z,7.21
2019-05-06T22:05:24.417Z,7.17
2019-05-06T22:07:52.583Z,7.14
2019-05-06T22:10:19.750Z,7.01
2019-05-06T22:12:46.601Z,6.88
2019-05-06T22:15:13.600Z,6.99
2019-05-06T22:17:40.361Z,6.85
2019-05-06T22:20:08.025Z,6.84
2019-05-06T22:22:37.323Z,6.84
2019-05-06T22:25:05.386Z,6.83
2019-05-06T22:27:32.343Z,6.85
2019-05-06T22:29:59.052Z,6.79
2019-05-06T22:32:25.759Z,6.97
2019-05-06T22:34:52.499Z,6.80
2019-05-06T22:37:19.195Z,6.88
2019-05-06T22:39:45.909Z,6.74
2019-05-06T22:42:12.841Z,6.82
2019-05-06T22:44:39.516Z,6.89
2019-05-06T22:47:06.237Z,6.84
2019-05-06T22:49:33.144Z,6.87
2019-05-06T22:51:59.996Z,6.92
2019-05-06T22:54:27.917Z,6.87
2019-05-06T22:56:54.705Z,6.78
2019-05-06T22:59:24.386Z,6.90
2019-05-06T23:01:55.330Z,7.01
2019-05-06T23:04:24.249Z,6.99
2019-05-06T23:06:51.121Z,7.02
2019-05-06T23:09:17.882Z,7.04
2019-05-06T23:11:44.698Z,7.00
2019-05-06T23:14:26.932Z,7.07
2019-05-06T23:16:42.468Z,7.00
2019-05-06T23:19:09.376Z,6.99
2019-05-06T23:21:36.177Z,7.05
2019-05-06T23:24:03.073Z,7.13
2019-05-06T23:26:29.878Z,6.99
2019-05-06T23:28:56.640Z,6.97
2019-05-06T23:31:24.531Z,6.76
2019-05-06T23:33:53.359Z,6.88
2019-05-06T23:36:20.352Z,6.79
2019-05-06T23:39:24.037Z,6.72
2019-05-06T23:42:27.530Z,6.65
2019-05-06T23:45:32.423Z,6.56
2019-05-06T23:48:35.776Z,6.68
2019-05-06T23:51:39.319Z,6.55
2019-05-06T23:54:42.959Z,6.64
2019-05-06T23:57:09.317Z,6.51
2019-05-06T23:59:36.036Z,6.55
